sensor_id;sensor_type;location;lat;lon;timestamp;P1;durP1;ratioP1;P2;durP2;ratioP2
40286;SDS011;25998;46.604;13.610;2023-05-07T00:01:43;5.28;;;4.60;;
40286;SDS011;25998;46.604;13.610;2023-05-07T00:04:53;4.75;;;3.70;;
40286;SDS011;25998;46.604;13.610;2023-05-07T00:08:05;5.28;;;4.45;;
40286;SDS011;25998;46.604;13.610;2023-05-07T00:11:16;4.55;;;3.88;;
40286;SDS011;25998;46.604;13.610;2023-05-07T00:14:27;3.95;;;3.30;;
40286;SDS011;25998;46.604;13.610;2023-05-07T00:17:37;4.20;;;3.53;;
40286;SDS011;25998;46.604;13.610;2023-05-07T00:20:48;6.18;;;3.80;;
40286;SDS011;25998;46.604;13.610;2023-05-07T00:23:59;4.00;;;3.33;;
40286;SDS011;25998;46.604;13.610;2023-05-07T00:27:10;3.78;;;3.20;;
40286;SDS011;25998;46.604;13.610;2023-05-07T00:30:21;6.22;;;3.70;;
40286;SDS011;25998;46.604;13.610;2023-05-07T00:33:32;4.95;;;3.97;;
40286;SDS011;25998;46.604;13.610;2023-05-07T00:36:43;4.82;;;4.00;;
40286;SDS011;25998;46.604;13.610;2023-05-07T00:39:53;5.45;;;4.00;;
40286;SDS011;25998;46.604;13.610;2023-05-07T00:43:05;5.10;;;3.60;;
40286;SDS011;25998;46.604;13.610;2023-05-07T00:46:16;5.78;;;3.90;;
40286;SDS011;25998;46.604;13.610;2023-05-07T00:49:41;4.38;;;3.78;;
40286;SDS011;25998;46.604;13.610;2023-05-07T00:52:53;4.93;;;4.28;;
40286;SDS011;25998;46.604;13.610;2023-05-07T00:56:05;5.55;;;3.83;;
40286;SDS011;25998;46.604;13.610;2023-05-07T00:59:17;5.18;;;3.90;;
40286;SDS011;25998;46.604;13.610;2023-05-07T01:02:28;3.80;;;3.35;;
40286;SDS011;25998;46.604;13.610;2023-05-07T01:05:39;4.38;;;3.05;;
40286;SDS011;25998;46.604;13.610;2023-05-07T01:08:52;4.55;;;3.28;;
40286;SDS011;25998;46.604;13.610;2023-05-07T01:12:06;4.35;;;3.00;;
40286;SDS011;25998;46.604;13.610;2023-05-07T01:15:18;3.85;;;3.10;;
40286;SDS011;25998;46.604;13.610;2023-05-07T01:18:29;3.50;;;2.92;;
40286;SDS011;25998;46.604;13.610;2023-05-07T01:21:40;3.30;;;2.80;;
40286;SDS011;25998;46.604;13.610;2023-05-07T01:24:55;4.78;;;2.80;;
40286;SDS011;25998;46.604;13.610;2023-05-07T01:28:06;4.47;;;3.10;;
40286;SDS011;25998;46.604;13.610;2023-05-07T01:31:17;3.33;;;2.80;;
40286;SDS011;25998;46.604;13.610;2023-05-07T01:34:30;3.25;;;2.80;;
40286;SDS011;25998;46.604;13.610;2023-05-07T01:37:44;4.45;;;2.85;;
40286;SDS011;25998;46.604;13.610;2023-05-07T01:40:57;4.43;;;2.83;;
40286;SDS011;25998;46.604;13.610;2023-05-07T01:44:08;4.50;;;2.90;;
40286;SDS011;25998;46.604;13.610;2023-05-07T01:47:22;3.28;;;2.85;;
40286;SDS011;25998;46.604;13.610;2023-05-07T01:50:35;4.03;;;2.70;;
40286;SDS011;25998;46.604;13.610;2023-05-07T01:53:47;2.90;;;2.40;;
40286;SDS011;25998;46.604;13.610;2023-05-07T01:57:00;3.90;;;2.80;;
40286;SDS011;25998;46.604;13.610;2023-05-07T02:00:11;5.03;;;2.75;;
40286;SDS011;25998;46.604;13.610;2023-05-07T02:03:22;3.35;;;2.70;;
40286;SDS011;25998;46.604;13.610;2023-05-07T02:06:33;4.85;;;2.80;;
40286;SDS011;25998;46.604;13.610;2023-05-07T02:09:44;4.68;;;2.70;;
40286;SDS011;25998;46.604;13.610;2023-05-07T02:12:55;3.40;;;2.72;;
40286;SDS011;25998;46.604;13.610;2023-05-07T02:16:06;6.30;;;2.75;;
40286;SDS011;25998;46.604;13.610;2023-05-07T02:19:17;3.20;;;2.70;;
40286;SDS011;25998;46.604;13.610;2023-05-07T02:22:33;3.33;;;2.88;;
40286;SDS011;25998;46.604;13.610;2023-05-07T02:25:44;6.10;;;2.78;;
40286;SDS011;25998;46.604;13.610;2023-05-07T02:28:56;4.15;;;2.80;;
40286;SDS011;25998;46.604;13.610;2023-05-07T02:32:06;8.27;;;3.22;;
40286;SDS011;25998;46.604;13.610;2023-05-07T02:35:17;4.35;;;2.83;;
40286;SDS011;25998;46.604;13.610;2023-05-07T02:38:28;5.25;;;3.33;;
40286;SDS011;25998;46.604;13.610;2023-05-07T02:41:39;3.58;;;3.05;;
40286;SDS011;25998;46.604;13.610;2023-05-07T02:44:50;3.97;;;3.42;;
40286;SDS011;25998;46.604;13.610;2023-05-07T02:48:01;5.30;;;3.03;;
40286;SDS011;25998;46.604;13.610;2023-05-07T02:51:11;4.30;;;3.13;;
40286;SDS011;25998;46.604;13.610;2023-05-07T02:54:22;4.38;;;3.45;;
40286;SDS011;25998;46.604;13.610;2023-05-07T02:57:33;6.40;;;3.83;;
40286;SDS011;25998;46.604;13.610;2023-05-07T03:00:44;5.05;;;3.30;;
40286;SDS011;25998;46.604;13.610;2023-05-07T03:03:55;3.50;;;3.20;;
40286;SDS011;25998;46.604;13.610;2023-05-07T03:07:06;3.75;;;3.17;;
40286;SDS011;25998;46.604;13.610;2023-05-07T03:10:17;3.67;;;3.00;;
40286;SDS011;25998;46.604;13.610;2023-05-07T03:13:28;4.38;;;2.95;;
40286;SDS011;25998;46.604;13.610;2023-05-07T03:16:39;3.75;;;3.30;;
40286;SDS011;25998;46.604;13.610;2023-05-07T03:19:50;4.57;;;3.20;;
40286;SDS011;25998;46.604;13.610;2023-05-07T03:23:01;5.10;;;3.15;;
40286;SDS011;25998;46.604;13.610;2023-05-07T03:26:12;4.50;;;3.20;;
40286;SDS011;25998;46.604;13.610;2023-05-07T03:29:23;3.58;;;2.90;;
40286;SDS011;25998;46.604;13.610;2023-05-07T03:32:34;4.07;;;3.30;;
40286;SDS011;25998;46.604;13.610;2023-05-07T03:35:45;4.53;;;3.20;;
40286;SDS011;25998;46.604;13.610;2023-05-07T03:38:56;5.20;;;3.42;;
40286;SDS011;25998;46.604;13.610;2023-05-07T03:42:07;4.97;;;3.20;;
40286;SDS011;25998;46.604;13.610;2023-05-07T03:45:18;3.38;;;2.90;;
40286;SDS011;25998;46.604;13.610;2023-05-07T03:48:29;5.07;;;3.10;;
40286;SDS011;25998;46.604;13.610;2023-05-07T03:51:40;3.60;;;3.30;;
40286;SDS011;25998;46.604;13.610;2023-05-07T03:54:52;4.85;;;3.25;;
40286;SDS011;25998;46.604;13.610;2023-05-07T03:58:03;4.57;;;3.10;;
40286;SDS011;25998;46.604;13.610;2023-05-07T04:01:14;4.80;;;3.35;;
40286;SDS011;25998;46.604;13.610;2023-05-07T04:04:25;6.68;;;3.10;;
40286;SDS011;25998;46.604;13.610;2023-05-07T04:07:36;5.00;;;3.25;;
40286;SDS011;25998;46.604;13.610;2023-05-07T04:10:47;4.55;;;2.90;;
40286;SDS011;25998;46.604;13.610;2023-05-07T04:13:57;7.38;;;3.35;;
40286;SDS011;25998;46.604;13.610;2023-05-07T04:17:08;4.15;;;2.88;;
40286;SDS011;25998;46.604;13.610;2023-05-07T04:20:20;6.30;;;3.10;;
40286;SDS011;25998;46.604;13.610;2023-05-07T04:23:31;3.67;;;2.78;;
40286;SDS011;25998;46.604;13.610;2023-05-07T04:26:42;4.47;;;2.92;;
40286;SDS011;25998;46.604;13.610;2023-05-07T04:29:53;4.25;;;2.90;;
40286;SDS011;25998;46.604;13.610;2023-05-07T04:33:05;7.00;;;2.92;;
40286;SDS011;25998;46.604;13.610;2023-05-07T04:36:16;4.00;;;3.50;;
40286;SDS011;25998;46.604;13.610;2023-05-07T04:39:27;3.75;;;2.72;;
40286;SDS011;25998;46.604;13.610;2023-05-07T04:42:38;3.17;;;2.70;;
40286;SDS011;25998;46.604;13.610;2023-05-07T04:45:50;5.72;;;3.45;;
40286;SDS011;25998;46.604;13.610;2023-05-07T04:49:02;3.30;;;3.00;;
40286;SDS011;25998;46.604;13.610;2023-05-07T04:52:13;3.78;;;2.70;;
40286;SDS011;25998;46.604;13.610;2023-05-07T04:55:25;4.75;;;3.47;;
40286;SDS011;25998;46.604;13.610;2023-05-07T04:58:36;3.80;;;3.13;;
40286;SDS011;25998;46.604;13.610;2023-05-07T05:01:47;3.38;;;2.75;;
40286;SDS011;25998;46.604;13.610;2023-05-07T05:04:57;4.13;;;2.95;;
40286;SDS011;25998;46.604;13.610;2023-05-07T05:08:09;3.40;;;3.10;;
40286;SDS011;25998;46.604;13.610;2023-05-07T05:11:20;3.63;;;2.97;;
40286;SDS011;25998;46.604;13.610;2023-05-07T05:14:31;3.20;;;2.90;;
40286;SDS011;25998;46.604;13.610;2023-05-07T05:17:42;3.88;;;2.67;;
40286;SDS011;25998;46.604;13.610;2023-05-07T05:20:52;3.33;;;2.78;;
40286;SDS011;25998;46.604;13.610;2023-05-07T05:24:03;3.53;;;2.97;;
40286;SDS011;25998;46.604;13.610;2023-05-07T05:27:14;4.32;;;2.83;;
40286;SDS011;25998;46.604;13.610;2023-05-07T05:30:25;4.75;;;2.90;;
40286;SDS011;25998;46.604;13.610;2023-05-07T05:33:36;6.63;;;3.22;;
40286;SDS011;25998;46.604;13.610;2023-05-07T05:36:47;3.50;;;2.88;;
40286;SDS011;25998;46.604;13.610;2023-05-07T05:39:58;3.22;;;2.63;;
40286;SDS011;25998;46.604;13.610;2023-05-07T05:43:09;2.97;;;2.60;;
40286;SDS011;25998;46.604;13.610;2023-05-07T05:46:19;3.72;;;3.13;;
40286;SDS011;25998;46.604;13.610;2023-05-07T05:49:30;3.97;;;3.08;;
40286;SDS011;25998;46.604;13.610;2023-05-07T05:52:41;3.65;;;2.83;;
40286;SDS011;25998;46.604;13.610;2023-05-07T05:55:52;3.80;;;3.20;;
40286;SDS011;25998;46.604;13.610;2023-05-07T05:59:03;10.23;;;4.30;;
40286;SDS011;25998;46.604;13.610;2023-05-07T06:02:14;4.15;;;3.72;;
40286;SDS011;25998;46.604;13.610;2023-05-07T06:05:25;4.78;;;3.70;;
40286;SDS011;25998;46.604;13.610;2023-05-07T06:08:35;4.57;;;4.18;;
40286;SDS011;25998;46.604;13.610;2023-05-07T06:11:46;3.90;;;3.30;;
40286;SDS011;25998;46.604;13.610;2023-05-07T06:14:57;4.85;;;3.55;;
40286;SDS011;25998;46.604;13.610;2023-05-07T06:18:08;5.00;;;4.07;;
40286;SDS011;25998;46.604;13.610;2023-05-07T06:21:19;4.15;;;3.67;;
40286;SDS011;25998;46.604;13.610;2023-05-07T06:24:30;4.10;;;3.40;;
40286;SDS011;25998;46.604;13.610;2023-05-07T06:27:40;4.65;;;3.38;;
40286;SDS011;25998;46.604;13.610;2023-05-07T06:30:51;6.82;;;3.97;;
40286;SDS011;25998;46.604;13.610;2023-05-07T06:34:02;4.38;;;3.35;;
40286;SDS011;25998;46.604;13.610;2023-05-07T06:37:13;4.35;;;3.47;;
40286;SDS011;25998;46.604;13.610;2023-05-07T06:40:24;5.25;;;3.70;;
40286;SDS011;25998;46.604;13.610;2023-05-07T06:43:35;4.28;;;3.40;;
40286;SDS011;25998;46.604;13.610;2023-05-07T06:46:46;3.88;;;3.25;;
40286;SDS011;25998;46.604;13.610;2023-05-07T06:49:57;4.30;;;3.38;;
40286;SDS011;25998;46.604;13.610;2023-05-07T06:53:08;6.10;;;3.70;;
40286;SDS011;25998;46.604;13.610;2023-05-07T06:56:18;4.45;;;3.90;;
40286;SDS011;25998;46.604;13.610;2023-05-07T06:59:30;3.97;;;3.53;;
40286;SDS011;25998;46.604;13.610;2023-05-07T07:02:40;5.10;;;3.85;;
40286;SDS011;25998;46.604;13.610;2023-05-07T07:05:52;5.10;;;3.65;;
40286;SDS011;25998;46.604;13.610;2023-05-07T07:09:03;4.00;;;3.53;;
40286;SDS011;25998;46.604;13.610;2023-05-07T07:12:15;6.63;;;3.67;;
40286;SDS011;25998;46.604;13.610;2023-05-07T07:15:26;4.20;;;2.90;;
40286;SDS011;25998;46.604;13.610;2023-05-07T07:18:36;5.13;;;3.38;;
40286;SDS011;25998;46.604;13.610;2023-05-07T07:21:47;4.57;;;3.35;;
40286;SDS011;25998;46.604;13.610;2023-05-07T07:24:58;4.53;;;3.47;;
40286;SDS011;25998;46.604;13.610;2023-05-07T07:28:09;5.45;;;3.60;;
40286;SDS011;25998;46.604;13.610;2023-05-07T07:31:20;3.53;;;3.17;;
40286;SDS011;25998;46.604;13.610;2023-05-07T07:34:31;4.30;;;3.60;;
40286;SDS011;25998;46.604;13.610;2023-05-07T07:37:42;4.18;;;3.28;;
40286;SDS011;25998;46.604;13.610;2023-05-07T07:40:53;3.55;;;3.25;;
40286;SDS011;25998;46.604;13.610;2023-05-07T07:44:04;4.15;;;3.67;;
40286;SDS011;25998;46.604;13.610;2023-05-07T07:47:17;4.15;;;3.75;;
40286;SDS011;25998;46.604;13.610;2023-05-07T07:50:28;3.58;;;3.00;;
40286;SDS011;25998;46.604;13.610;2023-05-07T07:53:39;6.13;;;3.70;;
40286;SDS011;25998;46.604;13.610;2023-05-07T07:56:51;4.93;;;3.70;;
40286;SDS011;25998;46.604;13.610;2023-05-07T08:00:02;3.80;;;3.20;;
40286;SDS011;25998;46.604;13.610;2023-05-07T08:03:14;6.20;;;3.60;;
40286;SDS011;25998;46.604;13.610;2023-05-07T08:06:26;5.72;;;3.20;;
40286;SDS011;25998;46.604;13.610;2023-05-07T08:09:37;7.60;;;3.60;;
40286;SDS011;25998;46.604;13.610;2023-05-07T08:12:49;4.13;;;3.17;;
40286;SDS011;25998;46.604;13.610;2023-05-07T08:16:00;3.47;;;3.17;;
40286;SDS011;25998;46.604;13.610;2023-05-07T08:19:11;5.28;;;3.63;;
40286;SDS011;25998;46.604;13.610;2023-05-07T08:22:22;5.90;;;3.45;;
40286;SDS011;25998;46.604;13.610;2023-05-07T08:25:33;4.10;;;3.10;;
40286;SDS011;25998;46.604;13.610;2023-05-07T08:28:44;4.35;;;3.38;;
40286;SDS011;25998;46.604;13.610;2023-05-07T08:31:55;3.53;;;3.22;;
40286;SDS011;25998;46.604;13.610;2023-05-07T08:35:06;3.95;;;3.25;;
40286;SDS011;25998;46.604;13.610;2023-05-07T08:38:17;4.40;;;3.13;;
40286;SDS011;25998;46.604;13.610;2023-05-07T08:41:29;4.85;;;3.58;;
40286;SDS011;25998;46.604;13.610;2023-05-07T08:44:40;3.75;;;3.05;;
40286;SDS011;25998;46.604;13.610;2023-05-07T08:47:58;4.70;;;3.20;;
40286;SDS011;25998;46.604;13.610;2023-05-07T08:51:12;4.38;;;3.25;;
40286;SDS011;25998;46.604;13.610;2023-05-07T08:54:24;4.75;;;3.10;;
40286;SDS011;25998;46.604;13.610;2023-05-07T08:57:36;3.88;;;3.40;;
40286;SDS011;25998;46.604;13.610;2023-05-07T09:00:47;4.38;;;3.25;;
40286;SDS011;25998;46.604;13.610;2023-05-07T09:03:58;5.22;;;3.67;;
40286;SDS011;25998;46.604;13.610;2023-05-07T09:07:09;4.47;;;3.80;;
40286;SDS011;25998;46.604;13.610;2023-05-07T09:10:20;4.35;;;3.95;;
40286;SDS011;25998;46.604;13.610;2023-05-07T09:13:31;4.65;;;4.18;;
40286;SDS011;25998;46.604;13.610;2023-05-07T09:16:42;4.75;;;4.22;;
40286;SDS011;25998;46.604;13.610;2023-05-07T09:19:53;4.18;;;3.38;;
40286;SDS011;25998;46.604;13.610;2023-05-07T09:23:04;4.97;;;3.25;;
40286;SDS011;25998;46.604;13.610;2023-05-07T09:26:17;4.25;;;3.72;;
40286;SDS011;25998;46.604;13.610;2023-05-07T09:29:28;7.57;;;3.95;;
40286;SDS011;25998;46.604;13.610;2023-05-07T09:32:40;5.75;;;4.03;;
40286;SDS011;25998;46.604;13.610;2023-05-07T09:35:51;6.25;;;3.88;;
40286;SDS011;25998;46.604;13.610;2023-05-07T09:39:02;8.05;;;4.30;;
40286;SDS011;25998;46.604;13.610;2023-05-07T09:42:13;5.43;;;3.95;;
40286;SDS011;25998;46.604;13.610;2023-05-07T09:45:27;5.05;;;4.22;;
40286;SDS011;25998;46.604;13.610;2023-05-07T09:48:39;5.03;;;3.90;;
40286;SDS011;25998;46.604;13.610;2023-05-07T09:51:52;4.70;;;4.20;;
40286;SDS011;25998;46.604;13.610;2023-05-07T09:55:03;5.15;;;3.47;;
40286;SDS011;25998;46.604;13.610;2023-05-07T09:58:16;5.72;;;3.25;;
40286;SDS011;25998;46.604;13.610;2023-05-07T10:01:29;4.07;;;3.42;;
40286;SDS011;25998;46.604;13.610;2023-05-07T10:04:42;3.83;;;3.42;;
40286;SDS011;25998;46.604;13.610;2023-05-07T10:07:53;4.35;;;3.80;;
40286;SDS011;25998;46.604;13.610;2023-05-07T10:11:05;3.95;;;3.55;;
40286;SDS011;25998;46.604;13.610;2023-05-07T10:14:16;3.63;;;3.33;;
40286;SDS011;25998;46.604;13.610;2023-05-07T10:17:28;5.35;;;3.30;;
40286;SDS011;25998;46.604;13.610;2023-05-07T10:20:39;4.40;;;3.00;;
40286;SDS011;25998;46.604;13.610;2023-05-07T10:23:59;4.20;;;3.38;;
40286;SDS011;25998;46.604;13.610;2023-05-07T10:27:24;4.00;;;3.47;;
40286;SDS011;25998;46.604;13.610;2023-05-07T10:30:49;3.85;;;3.20;;
40286;SDS011;25998;46.604;13.610;2023-05-07T10:34:23;4.03;;;3.63;;
40286;SDS011;25998;46.604;13.610;2023-05-07T10:37:36;6.00;;;3.80;;
40286;SDS011;25998;46.604;13.610;2023-05-07T10:40:47;4.07;;;3.67;;
40286;SDS011;25998;46.604;13.610;2023-05-07T10:43:58;5.53;;;3.80;;
40286;SDS011;25998;46.604;13.610;2023-05-07T10:47:13;4.75;;;4.35;;
40286;SDS011;25998;46.604;13.610;2023-05-07T10:50:25;4.78;;;3.97;;
40286;SDS011;25998;46.604;13.610;2023-05-07T10:53:36;4.20;;;3.80;;
40286;SDS011;25998;46.604;13.610;2023-05-07T10:56:47;5.93;;;4.03;;
40286;SDS011;25998;46.604;13.610;2023-05-07T10:59:58;5.60;;;4.25;;
40286;SDS011;25998;46.604;13.610;2023-05-07T11:03:09;7.60;;;4.40;;
40286;SDS011;25998;46.604;13.610;2023-05-07T11:06:20;4.60;;;4.20;;
40286;SDS011;25998;46.604;13.610;2023-05-07T11:13:08;4.50;;;3.78;;
40286;SDS011;25998;46.604;13.610;2023-05-07T11:16:23;4.75;;;3.70;;
40286;SDS011;25998;46.604;13.610;2023-05-07T11:19:54;4.18;;;3.80;;
40286;SDS011;25998;46.604;13.610;2023-05-07T11:23:06;4.45;;;3.72;;
40286;SDS011;25998;46.604;13.610;2023-05-07T11:26:17;4.22;;;3.78;;
40286;SDS011;25998;46.604;13.610;2023-05-07T11:29:28;3.95;;;3.55;;
40286;SDS011;25998;46.604;13.610;2023-05-07T11:32:41;4.80;;;3.40;;
40286;SDS011;25998;46.604;13.610;2023-05-07T11:35:55;4.45;;;3.42;;
40286;SDS011;25998;46.604;13.610;2023-05-07T11:39:06;5.30;;;3.65;;
40286;SDS011;25998;46.604;13.610;2023-05-07T11:42:34;4.35;;;3.45;;
40286;SDS011;25998;46.604;13.610;2023-05-07T11:45:47;4.80;;;3.50;;
40286;SDS011;25998;46.604;13.610;2023-05-07T11:49:00;3.53;;;2.97;;
40286;SDS011;25998;46.604;13.610;2023-05-07T11:52:11;4.00;;;3.30;;
40286;SDS011;25998;46.604;13.610;2023-05-07T11:55:23;5.70;;;3.55;;
40286;SDS011;25998;46.604;13.610;2023-05-07T11:58:36;7.95;;;4.00;;
40286;SDS011;25998;46.604;13.610;2023-05-07T12:01:47;5.18;;;3.80;;
40286;SDS011;25998;46.604;13.610;2023-05-07T12:04:58;4.63;;;3.33;;
40286;SDS011;25998;46.604;13.610;2023-05-07T12:08:14;4.80;;;3.70;;
40286;SDS011;25998;46.604;13.610;2023-05-07T12:11:26;4.47;;;3.60;;
40286;SDS011;25998;46.604;13.610;2023-05-07T12:14:37;4.22;;;3.63;;
40286;SDS011;25998;46.604;13.610;2023-05-07T12:17:52;5.13;;;3.42;;
40286;SDS011;25998;46.604;13.610;2023-05-07T12:21:04;3.55;;;3.25;;
40286;SDS011;25998;46.604;13.610;2023-05-07T12:24:16;4.22;;;3.83;;
40286;SDS011;25998;46.604;13.610;2023-05-07T12:27:27;5.90;;;3.83;;
40286;SDS011;25998;46.604;13.610;2023-05-07T12:30:38;4.97;;;3.72;;
40286;SDS011;25998;46.604;13.610;2023-05-07T12:33:50;5.72;;;3.85;;
40286;SDS011;25998;46.604;13.610;2023-05-07T12:37:03;3.65;;;3.35;;
40286;SDS011;25998;46.604;13.610;2023-05-07T12:40:14;5.72;;;3.47;;
40286;SDS011;25998;46.604;13.610;2023-05-07T12:43:26;7.55;;;3.65;;
40286;SDS011;25998;46.604;13.610;2023-05-07T12:46:38;4.32;;;3.70;;
40286;SDS011;25998;46.604;13.610;2023-05-07T12:49:49;4.00;;;3.28;;
40286;SDS011;25998;46.604;13.610;2023-05-07T12:53:03;3.65;;;3.25;;
40286;SDS011;25998;46.604;13.610;2023-05-07T12:56:18;3.60;;;3.30;;
40286;SDS011;25998;46.604;13.610;2023-05-07T12:59:46;4.13;;;3.50;;
40286;SDS011;25998;46.604;13.610;2023-05-07T13:02:58;3.30;;;2.83;;
40286;SDS011;25998;46.604;13.610;2023-05-07T13:06:09;3.28;;;2.50;;
40286;SDS011;25998;46.604;13.610;2023-05-07T13:09:20;6.32;;;2.58;;
40286;SDS011;25998;46.604;13.610;2023-05-07T13:12:31;2.50;;;2.10;;
40286;SDS011;25998;46.604;13.610;2023-05-07T13:15:42;3.75;;;2.33;;
40286;SDS011;25998;46.604;13.610;2023-05-07T13:18:53;3.55;;;2.40;;
40286;SDS011;25998;46.604;13.610;2023-05-07T13:22:03;3.20;;;2.25;;
40286;SDS011;25998;46.604;13.610;2023-05-07T13:25:16;4.20;;;2.58;;
40286;SDS011;25998;46.604;13.610;2023-05-07T13:28:27;5.28;;;2.95;;
40286;SDS011;25998;46.604;13.610;2023-05-07T13:31:38;2.78;;;2.53;;
40286;SDS011;25998;46.604;13.610;2023-05-07T13:34:52;3.85;;;2.72;;
40286;SDS011;25998;46.604;13.610;2023-05-07T13:38:03;5.75;;;2.70;;
40286;SDS011;25998;46.604;13.610;2023-05-07T13:41:14;6.30;;;3.10;;
40286;SDS011;25998;46.604;13.610;2023-05-07T13:44:26;8.20;;;3.22;;
40286;SDS011;25998;46.604;13.610;2023-05-07T13:47:36;8.80;;;3.80;;
40286;SDS011;25998;46.604;13.610;2023-05-07T13:50:47;4.80;;;3.08;;
40286;SDS011;25998;46.604;13.610;2023-05-07T13:53:58;7.00;;;3.30;;
40286;SDS011;25998;46.604;13.610;2023-05-07T13:57:09;4.70;;;2.83;;
40286;SDS011;25998;46.604;13.610;2023-05-07T14:00:20;7.93;;;3.35;;
40286;SDS011;25998;46.604;13.610;2023-05-07T14:03:31;6.60;;;3.13;;
40286;SDS011;25998;46.604;13.610;2023-05-07T14:06:43;4.97;;;3.00;;
40286;SDS011;25998;46.604;13.610;2023-05-07T14:09:54;4.57;;;3.10;;
40286;SDS011;25998;46.604;13.610;2023-05-07T14:13:06;3.65;;;2.90;;
40286;SDS011;25998;46.604;13.610;2023-05-07T14:16:17;4.85;;;2.45;;
40286;SDS011;25998;46.604;13.610;2023-05-07T14:19:28;3.90;;;2.40;;
40286;SDS011;25998;46.604;13.610;2023-05-07T14:22:39;3.10;;;2.42;;
40286;SDS011;25998;46.604;13.610;2023-05-07T14:25:50;4.88;;;2.40;;
40286;SDS011;25998;46.604;13.610;2023-05-07T14:29:01;6.13;;;2.50;;
40286;SDS011;25998;46.604;13.610;2023-05-07T14:32:12;4.63;;;2.75;;
40286;SDS011;25998;46.604;13.610;2023-05-07T14:35:23;3.00;;;2.40;;
40286;SDS011;25998;46.604;13.610;2023-05-07T14:38:34;2.83;;;2.22;;
40286;SDS011;25998;46.604;13.610;2023-05-07T14:41:45;4.25;;;2.40;;
40286;SDS011;25998;46.604;13.610;2023-05-07T14:44:55;4.68;;;2.60;;
40286;SDS011;25998;46.604;13.610;2023-05-07T14:48:06;4.18;;;2.38;;
40286;SDS011;25998;46.604;13.610;2023-05-07T14:51:19;4.25;;;2.40;;
40286;SDS011;25998;46.604;13.610;2023-05-07T14:54:33;4.47;;;3.03;;
40286;SDS011;25998;46.604;13.610;2023-05-07T14:57:45;4.40;;;2.97;;
40286;SDS011;25998;46.604;13.610;2023-05-07T15:00:56;4.25;;;2.80;;
40286;SDS011;25998;46.604;13.610;2023-05-07T15:04:07;2.83;;;2.53;;
40286;SDS011;25998;46.604;13.610;2023-05-07T15:07:17;5.50;;;3.13;;
40286;SDS011;25998;46.604;13.610;2023-05-07T15:10:28;3.70;;;2.53;;
40286;SDS011;25998;46.604;13.610;2023-05-07T15:13:39;4.35;;;2.53;;
40286;SDS011;25998;46.604;13.610;2023-05-07T15:16:52;3.25;;;2.85;;
40286;SDS011;25998;46.604;13.610;2023-05-07T15:20:03;5.32;;;2.40;;
40286;SDS011;25998;46.604;13.610;2023-05-07T15:23:14;4.05;;;2.85;;
40286;SDS011;25998;46.604;13.610;2023-05-07T15:26:28;4.10;;;2.80;;
40286;SDS011;25998;46.604;13.610;2023-05-07T15:29:39;3.97;;;2.60;;
40286;SDS011;25998;46.604;13.610;2023-05-07T15:32:50;4.97;;;2.90;;
40286;SDS011;25998;46.604;13.610;2023-05-07T15:36:00;3.70;;;2.50;;
40286;SDS011;25998;46.604;13.610;2023-05-07T15:39:13;3.10;;;2.55;;
40286;SDS011;25998;46.604;13.610;2023-05-07T15:42:24;4.53;;;2.70;;
40286;SDS011;25998;46.604;13.610;2023-05-07T15:45:41;5.35;;;3.13;;
40286;SDS011;25998;46.604;13.610;2023-05-07T15:48:53;3.10;;;2.80;;
40286;SDS011;25998;46.604;13.610;2023-05-07T15:52:03;3.55;;;3.17;;
40286;SDS011;25998;46.604;13.610;2023-05-07T15:55:14;4.32;;;3.03;;
40286;SDS011;25998;46.604;13.610;2023-05-07T15:58:25;3.20;;;2.53;;
40286;SDS011;25998;46.604;13.610;2023-05-07T16:01:36;4.90;;;3.42;;
40286;SDS011;25998;46.604;13.610;2023-05-07T16:04:47;3.25;;;2.92;;
40286;SDS011;25998;46.604;13.610;2023-05-07T16:07:58;6.07;;;3.58;;
40286;SDS011;25998;46.604;13.610;2023-05-07T16:11:09;4.70;;;3.10;;
40286;SDS011;25998;46.604;13.610;2023-05-07T16:14:20;3.75;;;3.20;;
40286;SDS011;25998;46.604;13.610;2023-05-07T16:17:32;4.72;;;3.28;;
40286;SDS011;25998;46.604;13.610;2023-05-07T16:20:42;4.13;;;2.90;;
40286;SDS011;25998;46.604;13.610;2023-05-07T16:23:54;3.63;;;3.00;;
40286;SDS011;25998;46.604;13.610;2023-05-07T16:27:06;2.97;;;2.60;;
40286;SDS011;25998;46.604;13.610;2023-05-07T16:30:16;4.05;;;2.92;;
40286;SDS011;25998;46.604;13.610;2023-05-07T16:33:27;4.15;;;3.00;;
40286;SDS011;25998;46.604;13.610;2023-05-07T16:36:38;3.75;;;3.13;;
40286;SDS011;25998;46.604;13.610;2023-05-07T16:39:49;3.72;;;3.15;;
40286;SDS011;25998;46.604;13.610;2023-05-07T16:43:00;3.00;;;2.70;;
40286;SDS011;25998;46.604;13.610;2023-05-07T16:46:13;3.35;;;2.70;;
40286;SDS011;25998;46.604;13.610;2023-05-07T16:49:24;4.75;;;3.13;;
40286;SDS011;25998;46.604;13.610;2023-05-07T16:52:35;3.92;;;3.28;;
40286;SDS011;25998;46.604;13.610;2023-05-07T16:55:45;4.72;;;3.13;;
40286;SDS011;25998;46.604;13.610;2023-05-07T16:58:56;3.53;;;2.78;;
40286;SDS011;25998;46.604;13.610;2023-05-07T17:02:07;3.42;;;2.95;;
40286;SDS011;25998;46.604;13.610;2023-05-07T17:05:18;4.13;;;3.38;;
40286;SDS011;25998;46.604;13.610;2023-05-07T17:08:29;7.57;;;3.33;;
40286;SDS011;25998;46.604;13.610;2023-05-07T17:11:39;4.75;;;3.05;;
40286;SDS011;25998;46.604;13.610;2023-05-07T17:14:50;4.15;;;3.30;;
40286;SDS011;25998;46.604;13.610;2023-05-07T17:18:01;5.53;;;3.47;;
40286;SDS011;25998;46.604;13.610;2023-05-07T17:21:12;4.25;;;2.97;;
40286;SDS011;25998;46.604;13.610;2023-05-07T17:24:23;5.40;;;3.55;;
40286;SDS011;25998;46.604;13.610;2023-05-07T17:27:34;5.38;;;3.80;;
40286;SDS011;25998;46.604;13.610;2023-05-07T17:30:45;4.07;;;3.17;;
40286;SDS011;25998;46.604;13.610;2023-05-07T17:33:57;5.03;;;3.00;;
40286;SDS011;25998;46.604;13.610;2023-05-07T17:37:08;5.60;;;3.30;;
40286;SDS011;25998;46.604;13.610;2023-05-07T17:40:19;5.03;;;3.53;;
40286;SDS011;25998;46.604;13.610;2023-05-07T17:43:31;5.75;;;3.75;;
40286;SDS011;25998;46.604;13.610;2023-05-07T17:46:42;5.50;;;3.75;;
40286;SDS011;25998;46.604;13.610;2023-05-07T17:49:53;3.25;;;2.92;;
40286;SDS011;25998;46.604;13.610;2023-05-07T17:53:04;4.00;;;3.05;;
40286;SDS011;25998;46.604;13.610;2023-05-07T17:56:15;7.50;;;3.65;;
40286;SDS011;25998;46.604;13.610;2023-05-07T17:59:26;5.28;;;3.85;;
40286;SDS011;25998;46.604;13.610;2023-05-07T18:02:37;5.20;;;3.53;;
40286;SDS011;25998;46.604;13.610;2023-05-07T18:05:50;4.78;;;3.83;;
40286;SDS011;25998;46.604;13.610;2023-05-07T18:09:01;5.35;;;3.50;;
40286;SDS011;25998;46.604;13.610;2023-05-07T18:12:12;4.55;;;3.95;;
40286;SDS011;25998;46.604;13.610;2023-05-07T18:15:22;3.80;;;3.47;;
40286;SDS011;25998;46.604;13.610;2023-05-07T18:18:33;4.85;;;4.20;;
40286;SDS011;25998;46.604;13.610;2023-05-07T18:21:44;4.57;;;4.18;;
40286;SDS011;25998;46.604;13.610;2023-05-07T18:24:55;4.20;;;3.80;;
40286;SDS011;25998;46.604;13.610;2023-05-07T18:28:06;6.13;;;3.53;;
40286;SDS011;25998;46.604;13.610;2023-05-07T18:31:17;5.65;;;3.65;;
40286;SDS011;25998;46.604;13.610;2023-05-07T18:34:29;4.85;;;4.22;;
40286;SDS011;25998;46.604;13.610;2023-05-07T18:37:40;5.00;;;4.50;;
40286;SDS011;25998;46.604;13.610;2023-05-07T18:40:51;6.00;;;4.40;;
40286;SDS011;25998;46.604;13.610;2023-05-07T18:44:02;7.78;;;4.60;;
40286;SDS011;25998;46.604;13.610;2023-05-07T18:47:13;4.72;;;4.20;;
40286;SDS011;25998;46.604;13.610;2023-05-07T18:50:23;10.25;;;5.40;;
40286;SDS011;25998;46.604;13.610;2023-05-07T18:53:34;6.43;;;5.10;;
40286;SDS011;25998;46.604;13.610;2023-05-07T18:56:45;7.13;;;5.10;;
40286;SDS011;25998;46.604;13.610;2023-05-07T18:59:56;8.27;;;5.18;;